createdAt,value
2023-02-11T00:01:29.066Z,27.80
2023-02-11T00:03:31.513Z,33.92
2023-02-11T00:05:34.288Z,33.13
2023-02-11T00:07:37.081Z,30.10
2023-02-11T00:09:39.525Z,28.48
2023-02-11T00:11:42.132Z,36.23
2023-02-11T00:13:45.752Z,45.45
2023-02-11T00:15:48.362Z,62.00
2023-02-11T00:17:51.145Z,62.10
2023-02-11T00:19:53.648Z,59.97
2023-02-11T00:21:56.131Z,53.83
2023-02-11T00:24:00.064Z,48.75
2023-02-11T00:26:02.744Z,43.45
2023-02-11T00:28:05.368Z,48.55
2023-02-11T00:30:08.513Z,49.45
2023-02-11T00:32:11.188Z,45.27
2023-02-11T00:34:13.646Z,43.70
2023-02-11T00:36:22.077Z,47.05
2023-02-11T00:38:24.568Z,44.05
2023-02-11T00:40:26.994Z,45.53
2023-02-11T00:42:29.405Z,33.27
2023-02-11T00:44:31.808Z,33.85
2023-02-11T00:46:34.318Z,35.05
2023-02-11T00:48:37.030Z,33.42
2023-02-11T00:50:39.489Z,35.72
2023-02-11T00:52:41.936Z,33.33
2023-02-11T00:54:44.439Z,33.38
2023-02-11T00:56:46.918Z,39.97
2023-02-11T00:58:49.323Z,38.10
2023-02-11T01:00:51.770Z,40.22
2023-02-11T01:02:55.018Z,65.13
2023-02-11T01:04:59.864Z,56.28
2023-02-11T01:07:02.438Z,59.60
2023-02-11T01:09:04.908Z,49.70
2023-02-11T01:11:12.540Z,53.25
2023-02-11T01:13:14.989Z,69.00
2023-02-11T01:15:19.753Z,45.40
2023-02-11T01:17:22.214Z,47.92
2023-02-11T01:19:24.670Z,36.63
2023-02-11T01:21:27.477Z,30.48
2023-02-11T01:23:30.048Z,30.50
2023-02-11T01:25:33.664Z,29.83
2023-02-11T01:27:36.609Z,30.27
2023-02-11T01:29:39.256Z,29.58
2023-02-11T01:31:41.780Z,30.30
2023-02-11T01:33:44.276Z,26.33
2023-02-11T01:35:46.800Z,27.23
2023-02-11T01:37:49.337Z,21.50
2023-02-11T01:39:51.853Z,22.88
2023-02-11T01:41:57.444Z,22.33
2023-02-11T01:44:19.830Z,21.87
2023-02-11T01:46:35.408Z,20.02
2023-02-11T01:48:41.715Z,24.77
2023-02-11T01:50:44.193Z,24.85
2023-02-11T01:52:48.148Z,23.70
2023-02-11T01:55:20.721Z,22.80
2023-02-11T01:57:26.723Z,20.45
2023-02-11T01:59:51.885Z,24.67
2023-02-11T02:01:59.701Z,25.45
2023-02-11T02:04:03.756Z,26.67
2023-02-11T02:06:20.146Z,26.20
2023-02-11T02:08:43.350Z,23.10
2023-02-11T02:10:49.269Z,23.10
2023-02-11T02:12:51.620Z,37.15
2023-02-11T02:15:19.567Z,26.45
2023-02-11T02:17:37.661Z,23.13
2023-02-11T02:20:04.230Z,22.52
2023-02-11T02:22:18.085Z,22.38
2023-02-11T02:24:38.158Z,24.40
2023-02-11T02:26:59.100Z,22.52
2023-02-11T02:29:10.176Z,24.45
2023-02-11T02:31:35.932Z,23.45
2023-02-11T02:33:57.317Z,23.92
2023-02-11T02:36:08.922Z,25.47
2023-02-11T02:38:21.664Z,25.88
2023-02-11T02:41:00.363Z,27.80
2023-02-11T02:43:04.208Z,30.38
2023-02-11T02:45:08.818Z,28.42
2023-02-11T02:47:11.250Z,22.63
2023-02-11T02:49:15.069Z,23.70
2023-02-11T02:51:42.356Z,23.02
2023-02-11T02:54:16.014Z,23.45
2023-02-11T02:56:42.091Z,39.35
2023-02-11T02:59:29.454Z,23.10
2023-02-11T03:01:53.066Z,20.70
2023-02-11T03:04:19.915Z,20.58
2023-02-11T03:06:41.445Z,20.95
2023-02-11T03:08:51.087Z,23.65
2023-02-11T03:10:54.599Z,23.43
2023-02-11T03:12:58.032Z,20.25
2023-02-11T03:15:00.822Z,22.83
2023-02-11T03:17:05.523Z,20.13
2023-02-11T03:19:23.188Z,21.63
2023-02-11T03:21:26.735Z,19.40
2023-02-11T03:23:42.544Z,20.60
2023-02-11T03:26:03.519Z,19.75
2023-02-11T03:28:23.340Z,20.17
2023-02-11T03:30:36.008Z,22.92
2023-02-11T03:32:42.227Z,24.00
2023-02-11T03:34:59.452Z,22.30
2023-02-11T03:37:14.646Z,22.98
2023-02-11T03:39:37.329Z,22.73
2023-02-11T03:41:40.045Z,21.30
2023-02-11T03:43:48.867Z,23.07
2023-02-11T03:45:53.575Z,23.45
2023-02-11T03:48:00.423Z,26.63
2023-02-11T03:50:05.305Z,25.73
2023-02-11T03:52:11.337Z,23.55
2023-02-11T03:54:17.127Z,21.57
2023-02-11T03:56:23.752Z,19.98
2023-02-11T03:58:26.291Z,22.35
2023-02-11T04:00:33.219Z,22.13
2023-02-11T04:02:37.436Z,17.63
2023-02-11T04:04:39.866Z,10.80
2023-02-11T04:06:43.398Z,17.30
2023-02-11T04:08:45.878Z,16.13
2023-02-11T04:10:48.183Z,18.33
2023-02-11T04:12:50.623Z,21.42
2023-02-11T04:14:53.235Z,17.97
2023-02-11T04:16:55.700Z,19.13
2023-02-11T04:18:58.487Z,18.95
2023-02-11T04:21:01.006Z,19.48
2023-02-11T04:23:03.458Z,16.85
2023-02-11T04:25:07.426Z,16.50
2023-02-11T04:27:09.979Z,19.40
2023-02-11T04:29:12.412Z,18.48
2023-02-11T04:31:14.917Z,19.25
2023-02-11T04:33:17.721Z,18.10
2023-02-11T04:35:20.459Z,19.77
2023-02-11T04:37:22.844Z,19.55
2023-02-11T04:39:28.481Z,20.02
2023-02-11T04:41:31.228Z,20.40
2023-02-11T04:43:33.635Z,22.67
2023-02-11T04:45:36.159Z,21.97
2023-02-11T04:47:38.703Z,23.35
2023-02-11T04:49:41.386Z,22.55
2023-02-11T04:51:46.991Z,17.98
2023-02-11T04:53:51.390Z,20.60
2023-02-11T04:55:53.821Z,19.17
2023-02-11T04:57:56.167Z,22.25
2023-02-11T04:59:58.619Z,19.98
2023-02-11T05:02:00.967Z,25.23
2023-02-11T05:04:03.486Z,21.88
2023-02-11T05:06:06.622Z,20.30
2023-02-11T05:08:11.403Z,22.20
2023-02-11T05:10:13.892Z,20.23
2023-02-11T05:12:16.328Z,21.58
2023-02-11T05:14:18.706Z,25.50
2023-02-11T05:16:21.309Z,22.20
2023-02-11T05:18:23.837Z,21.98
2023-02-11T05:20:26.258Z,22.90
2023-02-11T05:22:28.724Z,28.30
2023-02-11T05:24:32.518Z,26.30
2023-02-11T05:26:35.044Z,24.50
2023-02-11T05:28:37.835Z,21.65
2023-02-11T05:30:40.250Z,20.35
2023-02-11T05:32:42.789Z,21.02
2023-02-11T05:34:45.216Z,18.35
2023-02-11T05:36:47.706Z,18.97
2023-02-11T05:38:51.054Z,19.08
2023-02-11T05:40:53.875Z,18.88
2023-02-11T05:42:56.285Z,16.38
2023-02-11T05:44:58.775Z,18.73
2023-02-11T05:47:01.299Z,18.53
2023-02-11T05:49:04.072Z,17.42
2023-02-11T05:51:06.562Z,20.02
2023-02-11T05:53:08.997Z,18.27
2023-02-11T05:55:11.600Z,18.38
2023-02-11T05:57:16.324Z,20.57
2023-02-11T05:59:18.697Z,20.00
2023-02-11T06:01:21.217Z,19.35
2023-02-11T06:03:23.721Z,19.25
2023-02-11T06:05:26.409Z,20.17
2023-02-11T06:07:28.983Z,18.17
2023-02-11T06:09:31.426Z,19.25
2023-02-11T06:11:33.907Z,20.02
2023-02-11T06:13:36.759Z,19.92
2023-02-11T06:15:39.229Z,20.50
2023-02-11T06:17:41.665Z,20.77
2023-02-11T06:19:44.089Z,25.90
2023-02-11T06:21:46.596Z,36.22
2023-02-11T06:23:49.296Z,41.88
2023-02-11T06:25:52.883Z,41.35
2023-02-11T06:27:55.659Z,44.20
2023-02-11T06:29:58.282Z,47.92
2023-02-11T06:32:00.921Z,66.70
2023-02-11T06:34:03.386Z,55.72
2023-02-11T06:36:12.163Z,30.73
2023-02-11T06:38:14.572Z,24.90
2023-02-11T06:40:17.125Z,49.33
2023-02-11T06:42:19.587Z,32.55
2023-02-11T06:44:22.171Z,23.42
2023-02-11T06:46:24.688Z,25.27
2023-02-11T06:48:27.243Z,25.67
2023-02-11T06:50:29.659Z,29.52
2023-02-11T06:52:32.595Z,28.30
2023-02-11T06:54:34.982Z,28.65
2023-02-11T06:56:39.664Z,31.13
2023-02-11T06:58:42.065Z,28.27
2023-02-11T07:00:46.738Z,30.88
2023-02-11T07:02:49.293Z,35.88
2023-02-11T07:04:51.866Z,40.33
2023-02-11T07:06:54.291Z,57.78
2023-02-11T07:08:57.092Z,39.77
2023-02-11T07:10:59.878Z,44.63
2023-02-11T07:13:02.669Z,48.95
2023-02-11T07:15:06.402Z,43.83
2023-02-11T07:17:09.196Z,50.97
2023-02-11T07:19:11.689Z,58.53
2023-02-11T07:21:16.136Z,53.67
2023-02-11T07:23:18.585Z,78.38
2023-02-11T07:25:21.099Z,74.45
2023-02-11T07:27:23.470Z,77.30
2023-02-11T07:29:25.866Z,75.03
2023-02-11T07:31:30.861Z,74.03
2023-02-11T07:33:33.353Z,73.88
2023-02-11T07:35:35.745Z,73.80
2023-02-11T07:37:38.242Z,74.32
2023-02-11T07:39:40.807Z,79.23
2023-02-11T07:41:44.467Z,69.65
2023-02-11T07:43:46.918Z,52.20
2023-02-11T07:45:49.669Z,54.20
2023-02-11T07:47:52.372Z,51.63
2023-02-11T07:49:56.655Z,43.57
2023-02-11T07:51:59.306Z,42.78
2023-02-11T07:54:02.062Z,41.72
2023-02-11T07:56:05.630Z,48.33
2023-02-11T07:58:07.970Z,45.75
2023-02-11T08:00:11.172Z,43.83
2023-02-11T08:02:13.727Z,69.30
2023-02-11T08:04:16.201Z,51.72
2023-02-11T08:06:20.515Z,56.20
2023-02-11T08:08:23.032Z,60.33
2023-02-11T08:10:25.454Z,179.70
2023-02-11T08:12:27.850Z,85.88
2023-02-11T08:14:31.502Z,52.38
2023-02-11T08:16:36.333Z,66.15
2023-02-11T08:18:38.860Z,61.03
2023-02-11T08:20:41.548Z,49.27
2023-02-11T08:22:44.085Z,41.55
2023-02-11T08:24:46.574Z,41.58
2023-02-11T08:26:49.125Z,39.10
2023-02-11T08:28:53.044Z,36.60
2023-02-11T08:30:55.391Z,41.77
2023-02-11T08:32:57.894Z,41.00
2023-02-11T08:35:00.428Z,49.92
2023-02-11T08:37:02.830Z,59.20
2023-02-11T08:39:19.369Z,42.72
2023-02-11T08:41:22.587Z,54.07
2023-02-11T08:43:24.998Z,50.78
2023-02-11T08:45:27.496Z,40.95
2023-02-11T08:47:30.010Z,49.22
2023-02-11T08:49:34.065Z,36.78
2023-02-11T08:51:36.455Z,33.30
2023-02-11T08:53:39.318Z,35.03
2023-02-11T08:55:47.974Z,30.98
2023-02-11T08:57:50.559Z,32.08
2023-02-11T08:59:53.116Z,32.53
2023-02-11T09:01:56.364Z,31.40
2023-02-11T09:03:59.694Z,30.00
2023-02-11T09:06:06.415Z,29.27
2023-02-11T09:08:08.941Z,30.08
2023-02-11T09:10:11.401Z,29.42
2023-02-11T09:12:13.903Z,31.30
2023-02-11T09:14:21.787Z,31.52
2023-02-11T09:16:29.216Z,44.38
2023-02-11T09:18:32.225Z,36.20
2023-02-11T09:20:34.656Z,73.75
2023-02-11T09:22:37.257Z,40.80
2023-02-11T09:24:40.945Z,34.50
2023-02-11T09:26:43.668Z,38.10
2023-02-11T09:28:46.387Z,46.05
2023-02-11T09:30:49.128Z,56.13
2023-02-11T09:32:51.879Z,32.83
2023-02-11T09:34:54.414Z,32.85
2023-02-11T09:36:56.865Z,34.33
2023-02-11T09:39:01.056Z,28.75
2023-02-11T09:41:07.696Z,31.58
2023-02-11T09:43:21.109Z,28.20
2023-02-11T09:45:26.695Z,30.02
2023-02-11T09:47:51.624Z,31.13
2023-02-11T09:50:09.565Z,28.70
2023-02-11T09:52:25.351Z,29.90
2023-02-11T09:54:50.858Z,29.67
2023-02-11T09:56:53.307Z,29.95
2023-02-11T09:58:55.794Z,30.15
2023-02-11T10:01:23.454Z,29.30
2023-02-11T10:04:03.228Z,28.88
2023-02-11T10:06:22.142Z,27.17
2023-02-11T10:08:38.436Z,30.88
2023-02-11T10:11:04.427Z,29.73
2023-02-11T10:13:33.712Z,26.23
2023-02-11T10:16:12.836Z,33.10
2023-02-11T10:18:18.461Z,35.13
2023-02-11T10:20:23.820Z,32.10
2023-02-11T10:22:38.232Z,31.02
2023-02-11T10:24:42.767Z,28.50
2023-02-11T10:26:46.111Z,30.67
2023-02-11T10:28:51.267Z,30.70
2023-02-11T10:31:18.905Z,33.00
2023-02-11T10:33:44.871Z,32.47
2023-02-11T10:35:47.333Z,34.80
2023-02-11T10:37:50.235Z,32.80
2023-02-11T10:39:52.615Z,28.03
2023-02-11T10:41:58.047Z,32.25
2023-02-11T10:44:06.014Z,38.85
2023-02-11T10:46:23.019Z,31.08
2023-02-11T10:48:44.233Z,41.38
2023-02-11T10:50:46.614Z,23.53
2023-02-11T10:52:49.073Z,23.30
2023-02-11T10:55:06.606Z,20.58
2023-02-11T10:57:18.868Z,22.85
2023-02-11T10:59:38.015Z,23.15
2023-02-11T11:01:41.486Z,23.93
2023-02-11T11:03:49.896Z,21.52
2023-02-11T11:06:06.958Z,20.27
2023-02-11T11:08:09.987Z,15.63
2023-02-11T11:10:43.697Z,17.00
2023-02-11T11:12:46.126Z,15.77
2023-02-11T11:14:59.419Z,18.17
2023-02-11T11:17:01.856Z,19.45
2023-02-11T11:19:07.310Z,33.20
2023-02-11T11:21:37.262Z,19.75
2023-02-11T11:23:40.812Z,18.47
2023-02-11T11:25:46.462Z,19.98
2023-02-11T11:27:53.588Z,18.85
2023-02-11T11:29:57.398Z,19.20
2023-02-11T11:32:06.166Z,22.63
2023-02-11T11:34:30.985Z,20.47
2023-02-11T11:36:39.076Z,23.50
2023-02-11T11:38:50.871Z,23.67
2023-02-11T11:41:15.712Z,23.00
2023-02-11T11:43:23.115Z,18.50
2023-02-11T11:45:27.730Z,19.60
2023-02-11T11:47:30.121Z,21.17
2023-02-11T11:49:51.662Z,20.05
2023-02-11T11:52:30.043Z,17.88
2023-02-11T11:54:32.647Z,17.23
2023-02-11T11:56:38.805Z,19.60
2023-02-11T11:58:41.555Z,19.73
2023-02-11T12:00:55.217Z,20.75
2023-02-11T12:03:31.715Z,19.98
2023-02-11T12:05:55.872Z,19.08
2023-02-11T12:08:10.581Z,17.73
2023-02-11T12:10:21.644Z,18.08
2023-02-11T12:12:46.862Z,20.92
2023-02-11T12:15:01.681Z,17.70
2023-02-11T12:17:26.999Z,19.45
2023-02-11T12:20:03.374Z,16.70
2023-02-11T12:22:12.057Z,18.50
2023-02-11T12:24:29.703Z,19.67
2023-02-11T12:26:37.922Z,19.02
2023-02-11T12:28:43.299Z,18.75
2023-02-11T12:31:14.827Z,19.23
2023-02-11T12:33:33.930Z,20.40
2023-02-11T12:35:47.975Z,19.92
2023-02-11T12:38:08.419Z,19.60
2023-02-11T12:40:10.955Z,20.73
2023-02-11T12:43:14.413Z,20.27
2023-02-11T12:45:47.606Z,19.38
2023-02-11T12:48:00.388Z,18.08
2023-02-11T12:50:11.769Z,19.25
2023-02-11T12:52:34.446Z,18.73
2023-02-11T12:54:40.559Z,16.97
2023-02-11T12:57:07.068Z,20.45
2023-02-11T12:59:15.852Z,18.98
2023-02-11T13:01:31.971Z,17.10
2023-02-11T13:03:56.525Z,18.58
2023-02-11T13:06:34.851Z,18.67
2023-02-11T13:08:46.425Z,17.33
2023-02-11T13:10:53.506Z,18.33
2023-02-11T13:13:16.029Z,17.58
2023-02-11T13:15:18.713Z,17.85
2023-02-11T13:17:28.124Z,19.37
2023-02-11T13:19:30.573Z,20.42
2023-02-11T13:21:59.968Z,18.25
2023-02-11T13:24:09.972Z,17.58
2023-02-11T13:26:32.085Z,18.15
2023-02-11T13:28:56.420Z,17.97
2023-02-11T13:31:07.323Z,18.27
2023-02-11T13:33:21.511Z,16.30
2023-02-11T13:35:56.591Z,17.52
2023-02-11T13:38:03.780Z,18.92
2023-02-11T13:40:26.645Z,19.60
2023-02-11T13:42:30.787Z,17.83
2023-02-11T13:44:34.889Z,21.27
2023-02-11T13:47:02.772Z,18.58
2023-02-11T13:49:05.225Z,17.55
2023-02-11T13:51:12.921Z,17.77
2023-02-11T13:53:16.713Z,17.65
2023-02-11T13:55:24.410Z,17.63
2023-02-11T13:57:32.917Z,17.70
2023-02-11T13:59:38.478Z,18.80
2023-02-11T14:02:28.959Z,19.33
2023-02-11T14:04:50.091Z,18.27
2023-02-11T14:07:40.577Z,19.75
2023-02-11T14:09:43.460Z,19.20
2023-02-11T14:11:55.489Z,19.08
2023-02-11T14:14:15.082Z,22.37
2023-02-11T14:16:37.284Z,19.08
2023-02-11T14:18:52.494Z,21.48
2023-02-11T14:21:13.301Z,18.15
2023-02-11T14:23:25.756Z,18.27
2023-02-11T14:25:28.344Z,20.00
2023-02-11T14:27:31.928Z,19.10
2023-02-11T14:29:40.495Z,18.83
2023-02-11T14:31:43.025Z,19.67
2023-02-11T14:34:12.001Z,19.10
2023-02-11T14:36:26.846Z,17.70
2023-02-11T14:38:38.183Z,21.08
2023-02-11T14:40:46.504Z,19.35
2023-02-11T14:42:49.018Z,16.70
2023-02-11T14:44:53.229Z,17.70
2023-02-11T14:46:56.290Z,17.17
2023-02-11T14:49:00.919Z,17.80
2023-02-11T14:51:10.713Z,17.30
2023-02-11T14:53:19.037Z,17.67
2023-02-11T14:55:31.757Z,16.00
2023-02-11T14:57:34.261Z,17.73
2023-02-11T14:59:36.786Z,20.52
2023-02-11T15:01:42.739Z,20.30
2023-02-11T15:03:49.649Z,20.08
2023-02-11T15:05:57.301Z,19.40
2023-02-11T15:08:02.320Z,17.80
2023-02-11T15:10:04.951Z,18.45
2023-02-11T15:12:17.428Z,19.42
2023-02-11T15:14:31.533Z,18.35
2023-02-11T15:16:34.191Z,20.98
2023-02-11T15:18:41.239Z,19.77
2023-02-11T15:20:43.960Z,25.25
2023-02-11T15:22:47.195Z,21.17
2023-02-11T15:25:01.176Z,21.38
2023-02-11T15:27:08.664Z,21.55
2023-02-11T15:29:17.452Z,19.67
2023-02-11T15:31:26.161Z,20.95
2023-02-11T15:33:30.726Z,20.13
2023-02-11T15:35:41.060Z,24.08
2023-02-11T15:37:43.509Z,23.35
2023-02-11T15:39:46.027Z,23.80
2023-02-11T15:41:48.594Z,20.25
2023-02-11T15:43:51.307Z,22.45
2023-02-11T15:46:02.372Z,17.98
2023-02-11T15:48:17.712Z,23.23
2023-02-11T15:50:25.486Z,24.77
2023-02-11T15:52:28.633Z,34.10
2023-02-11T15:54:32.658Z,34.60
2023-02-11T15:56:43.323Z,27.00
2023-02-11T15:58:47.978Z,36.28
2023-02-11T16:00:54.800Z,41.90
2023-02-11T16:02:57.399Z,35.63
2023-02-11T16:05:04.197Z,38.80
2023-02-11T16:07:06.725Z,41.65
2023-02-11T16:09:12.661Z,31.88
2023-02-11T16:11:27.596Z,28.90
2023-02-11T16:13:33.729Z,30.20
2023-02-11T16:15:47.362Z,30.13
2023-02-11T16:17:49.855Z,30.50
2023-02-11T16:19:53.949Z,27.33
2023-02-11T16:21:58.555Z,27.07
2023-02-11T16:24:01.320Z,28.02
2023-02-11T16:26:13.275Z,27.88
2023-02-11T16:28:16.945Z,34.88
2023-02-11T16:30:40.553Z,31.15
2023-02-11T16:32:43.064Z,28.20
2023-02-11T16:34:45.916Z,32.22
2023-02-11T16:36:49.221Z,40.30
2023-02-11T16:38:51.684Z,38.33
2023-02-11T16:40:54.319Z,66.35
2023-02-11T16:42:56.751Z,77.83
2023-02-11T16:44:59.913Z,79.70
2023-02-11T16:47:03.876Z,86.68
2023-02-11T16:49:12.866Z,70.28
2023-02-11T16:51:15.311Z,68.75
2023-02-11T16:53:23.577Z,72.47
2023-02-11T16:55:26.021Z,59.97
2023-02-11T16:57:30.350Z,87.15
2023-02-11T16:59:32.913Z,57.47
2023-02-11T17:01:36.384Z,52.15
2023-02-11T17:03:40.691Z,79.53
2023-02-11T17:05:55.031Z,105.85
2023-02-11T17:07:58.442Z,140.77
2023-02-11T17:10:01.008Z,146.63
2023-02-11T17:12:03.490Z,143.25
2023-02-11T17:14:05.857Z,116.00
2023-02-11T17:16:22.757Z,116.05
2023-02-11T17:18:25.278Z,91.55
2023-02-11T17:20:27.872Z,87.13
2023-02-11T17:22:30.436Z,208.13
2023-02-11T17:24:32.850Z,142.67
2023-02-11T17:26:36.932Z,157.23
2023-02-11T17:28:39.386Z,112.95
2023-02-11T17:30:43.564Z,131.27
2023-02-11T17:32:47.345Z,138.20
2023-02-11T17:34:49.948Z,119.03
2023-02-11T17:36:52.423Z,128.70
2023-02-11T17:38:55.639Z,144.32
2023-02-11T17:40:59.587Z,126.03
2023-02-11T17:43:02.926Z,108.00
2023-02-11T17:45:05.888Z,101.77
2023-02-11T17:47:08.410Z,103.53
2023-02-11T17:49:12.111Z,96.22
2023-02-11T17:51:33.078Z,83.80
2023-02-11T17:53:35.583Z,75.63
2023-02-11T17:55:38.616Z,92.87
2023-02-11T17:57:41.199Z,74.70
2023-02-11T17:59:43.725Z,62.38
2023-02-11T18:01:46.190Z,46.95
2023-02-11T18:03:48.708Z,70.38
2023-02-11T18:05:51.520Z,155.87
2023-02-11T18:07:55.437Z,77.57
2023-02-11T18:09:57.874Z,88.22
2023-02-11T18:12:00.277Z,85.78
2023-02-11T18:14:04.674Z,112.15
2023-02-11T18:16:08.738Z,90.10
2023-02-11T18:18:11.607Z,80.32
2023-02-11T18:20:14.276Z,105.90
2023-02-11T18:22:17.584Z,160.70
2023-02-11T18:24:20.074Z,155.73
2023-02-11T18:26:22.647Z,144.67
2023-02-11T18:28:25.148Z,146.80
2023-02-11T18:30:28.761Z,124.00
2023-02-11T18:32:31.497Z,116.63
2023-02-11T18:34:33.992Z,154.02
2023-02-11T18:36:36.571Z,136.80
2023-02-11T18:38:39.820Z,144.38
2023-02-11T18:40:47.497Z,165.77
2023-02-11T18:42:50.031Z,110.53
2023-02-11T18:44:52.532Z,87.63
2023-02-11T18:46:55.271Z,79.80
2023-02-11T18:48:57.768Z,77.78
2023-02-11T18:51:00.251Z,83.85
2023-02-11T18:53:02.687Z,97.13
2023-02-11T18:55:06.346Z,100.30
2023-02-11T18:57:08.723Z,127.00
2023-02-11T18:59:11.192Z,135.77
2023-02-11T19:01:24.414Z,138.63
2023-02-11T19:03:26.946Z,101.90
2023-02-11T19:05:33.475Z,107.30
2023-02-11T19:07:35.963Z,209.30
2023-02-11T19:09:38.568Z,253.48
2023-02-11T19:11:47.254Z,263.58
2023-02-11T19:13:49.754Z,261.33
2023-02-11T19:15:52.469Z,177.20
2023-02-11T19:17:55.155Z,332.10
2023-02-11T19:19:57.608Z,272.92
2023-02-11T19:22:00.865Z,127.55
2023-02-11T19:24:07.813Z,140.07
2023-02-11T19:26:10.267Z,125.72
2023-02-11T19:28:13.349Z,151.50
2023-02-11T19:30:15.911Z,155.02
2023-02-11T19:32:18.431Z,155.40
2023-02-11T19:34:21.664Z,123.78
2023-02-11T19:36:24.153Z,102.75
2023-02-11T19:38:26.622Z,97.47
2023-02-11T19:40:29.390Z,93.30
2023-02-11T19:42:31.838Z,92.35
2023-02-11T19:44:34.388Z,89.80
2023-02-11T19:46:38.878Z,91.88
2023-02-11T19:48:41.355Z,92.63
2023-02-11T19:50:43.832Z,95.65
2023-02-11T19:52:46.227Z,99.40
2023-02-11T19:54:48.673Z,124.95
2023-02-11T19:56:51.274Z,112.57
2023-02-11T19:58:56.479Z,143.33
2023-02-11T20:01:15.111Z,102.32
2023-02-11T20:03:17.647Z,100.20
2023-02-11T20:05:20.124Z,97.07
2023-02-11T20:07:22.616Z,117.28
2023-02-11T20:09:26.620Z,121.57
2023-02-11T20:11:30.917Z,121.90
2023-02-11T20:13:34.277Z,142.48
2023-02-11T20:15:36.824Z,156.55
2023-02-11T20:17:39.341Z,190.23
2023-02-11T20:19:41.792Z,190.67
2023-02-11T20:21:46.782Z,184.98
2023-02-11T20:23:50.318Z,187.93
2023-02-11T20:25:53.127Z,170.48
2023-02-11T20:27:55.969Z,162.77
2023-02-11T20:29:58.526Z,154.40
2023-02-11T20:32:01.075Z,170.73
2023-02-11T20:34:03.646Z,173.73
2023-02-11T20:36:09.262Z,170.75
2023-02-11T20:38:11.837Z,173.85
2023-02-11T20:40:14.435Z,174.83
2023-02-11T20:42:16.858Z,174.60
2023-02-11T20:44:21.880Z,185.00
2023-02-11T20:46:26.562Z,183.70
2023-02-11T20:48:29.064Z,182.52
2023-02-11T20:50:31.505Z,179.67
2023-02-11T20:52:34.401Z,173.95
2023-02-11T20:54:36.952Z,188.20
2023-02-11T20:56:39.639Z,169.48
2023-02-11T20:58:42.458Z,119.10
2023-02-11T21:00:44.912Z,79.50
2023-02-11T21:02:52.521Z,69.15
2023-02-11T21:04:57.881Z,66.00
2023-02-11T21:07:02.018Z,65.63
2023-02-11T21:09:06.270Z,65.72
2023-02-11T21:11:08.946Z,66.53
2023-02-11T21:13:11.399Z,64.75
2023-02-11T21:15:14.426Z,61.65
2023-02-11T21:17:16.956Z,59.45
2023-02-11T21:19:20.383Z,63.70
2023-02-11T21:21:23.423Z,58.93
2023-02-11T21:23:26.176Z,53.80
2023-02-11T21:25:29.154Z,59.70
2023-02-11T21:27:33.385Z,68.32
2023-02-11T21:29:45.735Z,69.78
2023-02-11T21:31:55.501Z,73.13
2023-02-11T21:33:59.647Z,74.13
2023-02-11T21:36:03.977Z,66.15
2023-02-11T21:38:06.390Z,71.10
2023-02-11T21:40:09.682Z,75.65
2023-02-11T21:42:12.245Z,78.30
2023-02-11T21:44:14.777Z,98.80
2023-02-11T21:46:18.325Z,104.75
2023-02-11T21:48:20.752Z,106.88
2023-02-11T21:50:23.225Z,108.70
2023-02-11T21:52:25.750Z,104.47
2023-02-11T21:54:32.111Z,118.07
2023-02-11T21:56:35.509Z,116.88
2023-02-11T21:58:38.032Z,116.10
2023-02-11T22:00:40.684Z,104.88
2023-02-11T22:02:43.239Z,92.27
2023-02-11T22:04:45.861Z,94.90
2023-02-11T22:06:48.467Z,84.60
2023-02-11T22:08:51.012Z,79.47
2023-02-11T22:10:53.463Z,76.72
2023-02-11T22:12:55.975Z,72.80
2023-02-11T22:14:58.398Z,66.30
2023-02-11T22:17:00.886Z,62.10
2023-02-11T22:19:03.574Z,53.10
2023-02-11T22:21:08.562Z,52.50
2023-02-11T22:23:11.070Z,51.07
2023-02-11T22:25:13.750Z,46.80
2023-02-11T22:27:19.895Z,46.53
2023-02-11T22:29:23.195Z,47.22
2023-02-11T22:31:29.038Z,47.00
2023-02-11T22:33:31.567Z,47.37
2023-02-11T22:35:34.632Z,47.88
2023-02-11T22:37:37.560Z,51.60
2023-02-11T22:39:40.135Z,57.25
2023-02-11T22:41:46.580Z,68.90
2023-02-11T22:43:49.502Z,76.90
2023-02-11T22:45:52.548Z,68.40
2023-02-11T22:47:55.079Z,76.93
2023-02-11T22:49:57.559Z,70.68
2023-02-11T22:52:00.594Z,77.63
2023-02-11T22:54:05.478Z,80.70
2023-02-11T22:56:10.165Z,75.93
2023-02-11T22:58:12.570Z,74.30
2023-02-11T23:00:15.707Z,68.70
2023-02-11T23:02:18.354Z,67.95
2023-02-11T23:04:20.981Z,64.37
2023-02-11T23:06:23.550Z,64.35
2023-02-11T23:08:26.756Z,64.80
2023-02-11T23:10:29.139Z,65.03
2023-02-11T23:12:31.546Z,67.85
2023-02-11T23:14:34.042Z,77.13
2023-02-11T23:16:36.648Z,69.47
2023-02-11T23:18:40.970Z,63.53
2023-02-11T23:20:44.627Z,54.60
2023-02-11T23:22:47.054Z,93.40
2023-02-11T23:24:49.430Z,73.60
2023-02-11T23:26:51.935Z,55.03
2023-02-11T23:28:54.923Z,77.00
2023-02-11T23:30:57.481Z,65.78
2023-02-11T23:32:59.940Z,74.32
2023-02-11T23:35:02.349Z,88.03
2023-02-11T23:37:04.831Z,74.55
2023-02-11T23:39:07.441Z,64.35
2023-02-11T23:41:10.236Z,58.13
2023-02-11T23:43:12.650Z,63.53
2023-02-11T23:45:15.472Z,51.70
2023-02-11T23:47:17.824Z,49.58
2023-02-11T23:49:20.321Z,47.47
2023-02-11T23:51:23.323Z,37.17
2023-02-11T23:53:25.756Z,47.15
2023-02-11T23:55:28.282Z,50.87
2023-02-11T23:57:33.003Z,45.53
2023-02-11T23:59:35.456Z,47.80
